CheckWX is a tool to help pilots better visualize weather data.  It is not intended as a substitute for an official pre-flight weather briefing.

06:36:30 UTC

KMHE METAR
Mitchell Municipal Airport
Mitchell, South Dakota, USA
Current

44 mins ago

KMHE 230553Z AUTO 09003KT 10SM CLR 07/04 A3018 RMK AO2 SLP222 T00720039 10156 20061 401830061 53005
Observed
Apr-23 @ 05:53 UTC
Wind
  • 090° at 3 KTS
Visibility
10 SM
Flight Rules
VFR
Cloud Levels
  • Clear skies
Temperature
C / 45°F
Dewpoint
C / 39°F
Humidity
81%
Altimeter
30.18" Hg
Pressure
1022.02 hPa
Previous

2 hours ago

KMHE 230453Z AUTO 00000KT 10SM CLR 08/03 A3016 RMK AO2 SLP219 T00830028
Observed
Apr-23 @ 04:53 UTC
Visibility
10 SM
Flight Rules
VFR
Cloud Levels
  • Clear skies
Temperature
C / 46°F
Dewpoint
C / 37°F
Humidity
71%
Altimeter
30.16" Hg
Pressure
1021.32 hPa
Previous

3 hours ago

KMHE 230353Z AUTO 28003KT 10SM CLR 09/03 A3017 RMK AO2 SLP220 T00940028
Observed
Apr-23 @ 03:53 UTC
Wind
  • 280° at 3 KTS
Visibility
10 SM
Flight Rules
VFR
Cloud Levels
  • Clear skies
Temperature
C / 48°F
Dewpoint
C / 37°F
Humidity
66%
Altimeter
30.17" Hg
Pressure
1021.72 hPa